createdAt,value
2023-04-12T00:00:51.938Z,94.7548
2023-04-12T00:01:54.160Z,94.9168
2023-04-12T00:02:56.260Z,95.2593
2023-04-12T00:03:58.537Z,95.3924
2023-04-12T00:05:00.877Z,95.1278
2023-04-12T00:06:02.806Z,95.0888
2023-04-12T00:07:04.856Z,94.9081
2023-04-12T00:08:06.821Z,94.9401
2023-04-12T00:09:09.020Z,94.9769
2023-04-12T00:10:10.989Z,95.0219
2023-04-12T00:11:12.935Z,95.0710
2023-04-12T00:12:14.935Z,95.0879
2023-04-12T00:13:16.878Z,95.1167
2023-04-12T00:14:18.861Z,95.4512
2023-04-12T00:15:20.853Z,95.2709
2023-04-12T00:16:22.900Z,95.1734
2023-04-12T00:17:25.060Z,95.1949
2023-04-12T00:18:27.031Z,95.1137
2023-04-12T00:19:28.995Z,95.2254
2023-04-12T00:20:30.948Z,94.9893
2023-04-12T00:21:32.919Z,94.9740
2023-04-12T00:22:34.892Z,95.0020
2023-04-12T00:23:36.922Z,95.2089
2023-04-12T00:24:38.948Z,95.3478
2023-04-12T00:25:40.958Z,95.3647
2023-04-12T00:26:42.972Z,95.6639
2023-04-12T00:27:44.907Z,95.6662
2023-04-12T00:28:46.959Z,95.8886
2023-04-12T00:29:48.930Z,96.1404
2023-04-12T00:30:50.919Z,96.0346
2023-04-12T00:31:52.860Z,96.0643
2023-04-12T00:32:54.913Z,96.0520
2023-04-12T00:33:57.128Z,95.6219
2023-04-12T00:34:59.261Z,95.4137
2023-04-12T00:36:01.319Z,95.5905
2023-04-12T00:37:03.264Z,95.6248
2023-04-12T00:38:05.296Z,95.8154
2023-04-12T00:39:07.272Z,95.7890
2023-04-12T00:40:09.472Z,95.8137
2023-04-12T00:41:11.414Z,95.9161
2023-04-12T00:42:13.438Z,95.8739
2023-04-12T00:43:15.643Z,95.7141
2023-04-12T00:44:17.903Z,95.6498
2023-04-12T00:45:19.860Z,95.5447
2023-04-12T00:46:21.883Z,95.5185
2023-04-12T00:47:23.915Z,95.2939
2023-04-12T00:48:25.936Z,95.2073
2023-04-12T00:49:27.916Z,94.9833
2023-04-12T00:50:29.928Z,94.7635
2023-04-12T00:51:31.866Z,94.8077
2023-04-12T00:52:33.845Z,94.9306
2023-04-12T00:53:35.942Z,95.1819
2023-04-12T00:54:37.896Z,95.2248
2023-04-12T00:55:39.855Z,95.1542
2023-04-12T00:56:41.909Z,95.3243
2023-04-12T00:57:43.930Z,94.9306
2023-04-12T00:58:45.949Z,94.5492
2023-04-12T00:59:47.975Z,94.5247
2023-04-12T01:00:50.149Z,94.7859
2023-04-12T01:01:50.160Z,94.8694
2023-04-12T01:02:52.329Z,94.6625
2023-04-12T01:03:54.569Z,94.7023
2023-04-12T01:04:54.413Z,94.7770
2023-04-12T01:05:56.383Z,94.8553
2023-04-12T01:06:58.392Z,94.8156
2023-04-12T01:08:00.397Z,94.4762
2023-04-12T01:09:02.538Z,94.6903
2023-04-12T01:10:04.484Z,94.9404
2023-04-12T01:11:06.501Z,95.1222
2023-04-12T01:12:08.612Z,95.3747
2023-04-12T01:13:10.632Z,95.5484
2023-04-12T01:14:12.611Z,95.6702
2023-04-12T01:15:14.640Z,95.5694
2023-04-12T01:16:16.659Z,95.5737
2023-04-12T01:17:18.633Z,95.7872
2023-04-12T01:18:20.629Z,96.0051
2023-04-12T01:19:22.643Z,95.9483
2023-04-12T01:20:24.694Z,95.8827
2023-04-12T01:21:26.654Z,95.8288
2023-04-12T01:22:28.762Z,95.7646
2023-04-12T01:23:30.752Z,95.6499
2023-04-12T01:24:32.710Z,95.4387
2023-04-12T01:25:34.683Z,95.2727
2023-04-12T01:26:36.728Z,95.3571
2023-04-12T01:27:38.740Z,95.2897
2023-04-12T01:28:40.721Z,95.1665
2023-04-12T01:29:42.729Z,95.1057
2023-04-12T01:30:44.698Z,95.2610
2023-04-12T01:31:46.661Z,95.2621
2023-04-12T01:32:48.714Z,95.4311
2023-04-12T01:33:50.850Z,95.7163
2023-04-12T01:34:52.918Z,95.8969
2023-04-12T01:35:54.968Z,95.9773
2023-04-12T01:36:56.893Z,95.6687
2023-04-12T01:37:58.919Z,95.5172
2023-04-12T01:39:00.936Z,95.4419
2023-04-12T01:40:02.958Z,95.4820
2023-04-12T01:41:05.001Z,95.4733
2023-04-12T01:42:07.048Z,95.4883
2023-04-12T01:43:09.034Z,95.4265
2023-04-12T01:44:11.172Z,95.0232
2023-04-12T01:45:13.122Z,95.1482
2023-04-12T01:46:15.081Z,95.1563
2023-04-12T01:47:17.106Z,95.1218
2023-04-12T01:48:19.073Z,95.2902
2023-04-12T01:49:21.100Z,95.2026
2023-04-12T01:50:23.105Z,95.2345
2023-04-12T01:51:25.132Z,95.3910
2023-04-12T01:52:27.114Z,95.6435
2023-04-12T01:53:29.154Z,95.6109
2023-04-12T01:54:31.164Z,95.4934
2023-04-12T01:55:33.098Z,95.6193
2023-04-12T01:56:35.045Z,95.5756
2023-04-12T01:57:37.037Z,95.5730
2023-04-12T01:58:39.056Z,95.4899
2023-04-12T01:59:41.121Z,95.5886
2023-04-12T02:00:43.065Z,95.5501
2023-04-12T02:01:45.156Z,95.4497
2023-04-12T02:02:47.273Z,95.4189
2023-04-12T02:03:49.420Z,95.6398
2023-04-12T02:04:51.821Z,95.6286
2023-04-12T02:05:53.899Z,95.6286
2023-04-12T02:06:55.967Z,95.4762
2023-04-12T02:07:58.061Z,95.7642
2023-04-12T02:09:00.104Z,95.8628
2023-04-12T02:10:02.173Z,95.8177
2023-04-12T02:11:04.153Z,95.9730
2023-04-12T02:12:06.249Z,96.0161
2023-04-12T02:13:08.308Z,96.1185
2023-04-12T02:14:10.296Z,95.8792
2023-04-12T02:15:12.305Z,95.7676
2023-04-12T02:16:14.306Z,95.3254
2023-04-12T02:17:16.391Z,95.2243
2023-04-12T02:18:18.387Z,95.2978
2023-04-12T02:19:20.400Z,95.4005
2023-04-12T02:20:22.509Z,95.5584
2023-04-12T02:21:24.543Z,95.6871
2023-04-12T02:22:26.553Z,95.4762
2023-04-12T02:23:28.580Z,95.3431
2023-04-12T02:24:30.639Z,95.2923
2023-04-12T02:25:32.693Z,95.2857
2023-04-12T02:26:34.714Z,95.4973
2023-04-12T02:27:36.704Z,95.5961
2023-04-12T02:28:38.754Z,95.7682
2023-04-12T02:29:40.720Z,95.8254
2023-04-12T02:30:42.779Z,95.8010
2023-04-12T02:31:44.806Z,95.5932
2023-04-12T02:32:46.906Z,95.2453
2023-04-12T02:33:48.941Z,95.1951
2023-04-12T02:34:50.972Z,95.0989
2023-04-12T02:35:53.112Z,94.8345
2023-04-12T02:36:55.176Z,94.7471
2023-04-12T02:37:57.247Z,94.3866
2023-04-12T02:38:59.250Z,94.2210
2023-04-12T02:40:01.300Z,94.0119
2023-04-12T02:41:03.351Z,93.9119
2023-04-12T02:42:05.460Z,93.8631
2023-04-12T02:43:07.543Z,94.0316
2023-04-12T02:44:09.556Z,94.0950
2023-04-12T02:45:11.671Z,94.0190
2023-04-12T02:46:13.674Z,94.1700
2023-04-12T02:47:15.690Z,94.1829
2023-04-12T02:48:18.059Z,94.1408
2023-04-12T02:49:20.071Z,94.0784
2023-04-12T02:50:22.456Z,94.2539
2023-04-12T02:51:24.494Z,94.2277
2023-04-12T02:52:26.534Z,94.0652
2023-04-12T02:53:28.625Z,94.0415
2023-04-12T02:54:30.625Z,94.1293
2023-04-12T02:55:32.689Z,94.2606
2023-04-12T02:56:34.736Z,94.3792
2023-04-12T02:57:36.777Z,94.2321
2023-04-12T02:58:38.861Z,94.3196
2023-04-12T02:59:40.853Z,94.3781
2023-04-12T03:00:42.868Z,94.5077
2023-04-12T03:01:44.986Z,94.5607
2023-04-12T03:02:47.128Z,94.6969
2023-04-12T03:03:49.282Z,94.8446
2023-04-12T03:04:51.314Z,94.9400
2023-04-12T03:05:53.334Z,94.9908
2023-04-12T03:06:55.332Z,95.0911
2023-04-12T03:07:57.446Z,95.0341
2023-04-12T03:08:59.498Z,94.8615
2023-04-12T03:10:01.592Z,94.7263
2023-04-12T03:11:03.680Z,94.7119
2023-04-12T03:12:05.731Z,94.8885
2023-04-12T03:13:07.799Z,94.9276
2023-04-12T03:14:09.876Z,95.0844
2023-04-12T03:15:11.902Z,95.3294
2023-04-12T03:16:13.948Z,95.4137
2023-04-12T03:17:15.979Z,95.7417
2023-04-12T03:18:17.975Z,95.8650
2023-04-12T03:19:20.020Z,96.0412
2023-04-12T03:20:22.002Z,96.1039
2023-04-12T03:21:24.075Z,96.1396
2023-04-12T03:22:26.166Z,96.1934
2023-04-12T03:23:28.201Z,96.2535
2023-04-12T03:24:30.208Z,96.1313
2023-04-12T03:25:32.236Z,96.1692
2023-04-12T03:26:34.345Z,96.3027
2023-04-12T03:27:36.468Z,96.3822
2023-04-12T03:28:38.517Z,96.1479
2023-04-12T03:29:40.611Z,95.9494
2023-04-12T03:30:42.686Z,95.8896
2023-04-12T03:31:44.702Z,95.9892
2023-04-12T03:32:46.761Z,96.1140
2023-04-12T03:33:48.834Z,95.9789
2023-04-12T03:34:50.865Z,96.0496
2023-04-12T03:35:52.947Z,95.8456
2023-04-12T03:36:55.079Z,95.8336
2023-04-12T03:37:57.118Z,95.6519
2023-04-12T03:38:59.225Z,95.5353
2023-04-12T03:40:01.315Z,95.4719
2023-04-12T03:41:03.344Z,95.6491
2023-04-12T03:42:05.365Z,95.5822
2023-04-12T03:43:07.358Z,95.3171
2023-04-12T03:44:09.441Z,95.2426
2023-04-12T03:45:11.439Z,95.2293
2023-04-12T03:46:13.515Z,95.2646
2023-04-12T03:47:15.508Z,94.8113
2023-04-12T03:48:17.627Z,94.9396
2023-04-12T03:49:19.727Z,95.2499
2023-04-12T03:50:21.768Z,95.3666
2023-04-12T03:51:23.876Z,95.4814
2023-04-12T03:52:25.935Z,95.4557
2023-04-12T03:53:28.027Z,95.0137
2023-04-12T03:54:30.094Z,95.1127
2023-04-12T03:55:32.219Z,95.1092
2023-04-12T03:56:34.286Z,95.4114
2023-04-12T03:57:36.316Z,95.3975
2023-04-12T03:58:38.486Z,95.4207
2023-04-12T03:59:40.516Z,95.2466
2023-04-12T04:00:42.620Z,95.1158
2023-04-12T04:01:44.812Z,95.0517
2023-04-12T04:02:46.899Z,95.1147
2023-04-12T04:03:49.061Z,95.3169
2023-04-12T04:04:51.189Z,95.2383
2023-04-12T04:05:53.283Z,95.0952
2023-04-12T04:06:55.332Z,95.1002
2023-04-12T04:07:57.349Z,95.1109
2023-04-12T04:08:59.437Z,95.0764
2023-04-12T04:10:01.518Z,94.9146
2023-04-12T04:11:03.624Z,94.6332
2023-04-12T04:12:05.697Z,94.2794
2023-04-12T04:13:07.789Z,94.2144
2023-04-12T04:14:09.873Z,94.2789
2023-04-12T04:15:11.857Z,94.5986
2023-04-12T04:16:13.871Z,95.0525
2023-04-12T04:17:15.897Z,95.2063
2023-04-12T04:18:18.036Z,95.3780
2023-04-12T04:19:20.113Z,95.5261
2023-04-12T04:20:22.173Z,95.2986
2023-04-12T04:21:24.341Z,95.1614
2023-04-12T04:22:26.382Z,94.6398
2023-04-12T04:23:28.489Z,94.5574
2023-04-12T04:24:30.513Z,94.9098
2023-04-12T04:25:32.555Z,94.8110
2023-04-12T04:26:34.600Z,94.5509
2023-04-12T04:27:36.617Z,94.8949
2023-04-12T04:28:38.679Z,95.2081
2023-04-12T04:29:40.701Z,95.2511
2023-04-12T04:30:42.734Z,95.3114
2023-04-12T04:31:44.792Z,95.4233
2023-04-12T04:32:46.874Z,95.0902
2023-04-12T04:33:48.920Z,94.6652
2023-04-12T04:34:51.012Z,94.3452
2023-04-12T04:35:53.062Z,94.3816
2023-04-12T04:36:55.085Z,94.3095
2023-04-12T04:37:57.187Z,94.5740
2023-04-12T04:38:59.215Z,94.7196
2023-04-12T04:40:01.276Z,94.8415
2023-04-12T04:41:03.302Z,94.8635
2023-04-12T04:42:05.323Z,95.0397
2023-04-12T04:43:08.359Z,95.3473
2023-04-12T04:44:08.174Z,95.6367
2023-04-12T04:45:10.322Z,95.7911
2023-04-12T04:46:12.429Z,95.7789
2023-04-12T04:47:14.506Z,95.6849
2023-04-12T04:48:16.554Z,95.8596
2023-04-12T04:49:18.601Z,95.9998
2023-04-12T04:50:20.679Z,96.0931
2023-04-12T04:51:22.726Z,96.2389
2023-04-12T04:52:24.720Z,96.1974
2023-04-12T04:53:26.744Z,96.0173
2023-04-12T04:54:28.823Z,95.7865
2023-04-12T04:55:30.891Z,95.7451
2023-04-12T04:56:32.906Z,95.7055
2023-04-12T04:57:34.953Z,95.5427
2023-04-12T04:58:37.005Z,95.4685
2023-04-12T04:59:39.172Z,95.6712
2023-04-12T05:00:41.222Z,95.4704
2023-04-12T05:01:43.309Z,95.3321
2023-04-12T05:02:45.798Z,95.2677
2023-04-12T05:03:48.029Z,94.8837
2023-04-12T05:04:50.109Z,94.9761
2023-04-12T05:05:52.121Z,95.1378
2023-04-12T05:06:54.210Z,95.2094
2023-04-12T05:07:56.264Z,95.2799
2023-04-12T05:08:58.556Z,95.3918
2023-04-12T05:09:58.621Z,95.4133
2023-04-12T05:11:00.672Z,95.2255
2023-04-12T05:12:02.756Z,95.3388
2023-04-12T05:13:04.768Z,95.3115
2023-04-12T05:14:06.849Z,94.9802
2023-04-12T05:15:11.997Z,95.0364
2023-04-12T05:16:09.446Z,95.4269
2023-04-12T05:17:11.586Z,95.6221
2023-04-12T05:18:13.608Z,95.7661
2023-04-12T05:19:15.694Z,95.9248
2023-04-12T05:20:17.709Z,95.9398
2023-04-12T05:21:19.749Z,96.0841
2023-04-12T05:22:21.814Z,96.2088
2023-04-12T05:23:23.816Z,96.2242
2023-04-12T05:24:25.857Z,96.4074
2023-04-12T05:25:27.877Z,96.5628
2023-04-12T05:26:30.056Z,96.7344
2023-04-12T05:27:32.196Z,96.7524
2023-04-12T05:28:34.292Z,96.7926
2023-04-12T05:29:36.297Z,96.7594
2023-04-12T05:30:38.514Z,96.7262
2023-04-12T05:31:40.534Z,96.7505
2023-04-12T05:32:42.598Z,96.8372
2023-04-12T05:33:44.621Z,96.6589
2023-04-12T05:34:46.713Z,96.1741
2023-04-12T05:35:48.793Z,96.1459
2023-04-12T05:36:50.786Z,96.4158
2023-04-12T05:37:52.865Z,96.6777
2023-04-12T05:38:55.088Z,96.6998
2023-04-12T05:39:57.238Z,96.6114
2023-04-12T05:40:59.292Z,96.5739
2023-04-12T05:42:01.394Z,96.3980
2023-04-12T05:43:03.417Z,96.3283
2023-04-12T05:44:05.494Z,96.2512
2023-04-12T05:45:07.512Z,96.5332
2023-04-12T05:46:09.568Z,96.4675
2023-04-12T05:47:11.573Z,96.2785
2023-04-12T05:48:13.594Z,96.1055
2023-04-12T05:49:15.740Z,95.9988
2023-04-12T05:50:17.778Z,96.0219
2023-04-12T05:51:30.628Z,95.7349
2023-04-12T05:52:20.038Z,95.9938
2023-04-12T05:53:22.298Z,96.1721
2023-04-12T05:54:24.328Z,96.1001
2023-04-12T05:55:26.419Z,96.0407
2023-04-12T05:56:28.435Z,95.9684
2023-04-12T05:57:30.536Z,95.9164
2023-04-12T05:58:32.699Z,96.0112
2023-04-12T05:59:34.689Z,95.9568
2023-04-12T06:00:36.778Z,96.0018
2023-04-12T06:01:38.828Z,95.9245
2023-04-12T06:02:40.952Z,96.1091
2023-04-12T06:03:43.165Z,96.0613
2023-04-12T06:04:50.579Z,96.0018
2023-04-12T06:05:45.503Z,96.0824
2023-04-12T06:06:47.608Z,95.9226
2023-04-12T06:07:49.635Z,95.9471
2023-04-12T06:08:51.712Z,95.7989
2023-04-12T06:09:53.762Z,95.7877
2023-04-12T06:10:55.850Z,95.8866
2023-04-12T06:11:57.853Z,96.0901
2023-04-12T06:12:59.953Z,96.1515
2023-04-12T06:14:02.053Z,96.2444
2023-04-12T06:15:04.109Z,96.0062
2023-04-12T06:16:06.180Z,96.0212
2023-04-12T06:17:08.264Z,96.0432
2023-04-12T06:18:10.334Z,96.0573
2023-04-12T06:19:12.332Z,96.0018
2023-04-12T06:20:14.437Z,96.0750
2023-04-12T06:21:16.452Z,96.1164
2023-04-12T06:22:18.443Z,96.0751
2023-04-12T06:23:20.493Z,95.9639
2023-04-12T06:24:22.659Z,96.1058
2023-04-12T06:25:24.762Z,96.0557
2023-04-12T06:26:27.881Z,95.9394
2023-04-12T06:27:26.987Z,95.9168
2023-04-12T06:28:29.035Z,95.7494
2023-04-12T06:29:31.090Z,95.6280
2023-04-12T06:30:33.149Z,95.4191
2023-04-12T06:31:35.256Z,95.5796
2023-04-12T06:32:37.444Z,95.4611
2023-04-12T06:33:39.534Z,94.9989
2023-04-12T06:34:41.606Z,94.9550
2023-04-12T06:35:43.733Z,94.7065
2023-04-12T06:36:45.861Z,94.5999
2023-04-12T06:37:47.946Z,94.3969
2023-04-12T06:38:49.990Z,94.3206
2023-04-12T06:39:52.092Z,94.5113
2023-04-12T06:40:54.160Z,94.5619
2023-04-12T06:41:56.188Z,94.2657
2023-04-12T06:42:58.327Z,94.0992
2023-04-12T06:44:00.369Z,94.3865
2023-04-12T06:45:02.446Z,94.3344
2023-04-12T06:46:04.526Z,94.1688
2023-04-12T06:47:06.609Z,94.0380
2023-04-12T06:48:08.833Z,93.9911
2023-04-12T06:49:10.942Z,93.8142
2023-04-12T06:50:13.270Z,93.5193
2023-04-12T06:51:15.615Z,92.7501
2023-04-12T06:52:17.661Z,92.4650
2023-04-12T06:53:19.703Z,92.6439
2023-04-12T06:54:21.745Z,92.4703
2023-04-12T06:55:23.795Z,92.4758
2023-04-12T06:56:25.855Z,92.0930
2023-04-12T06:57:27.929Z,91.8518
2023-04-12T06:58:29.930Z,91.9015
2023-04-12T06:59:31.987Z,91.8689
2023-04-12T07:00:34.100Z,91.9526
2023-04-12T07:01:36.109Z,91.8517
2023-04-12T07:02:38.228Z,91.9538
2023-04-12T07:03:40.524Z,91.9099
2023-04-12T07:04:40.356Z,92.1210
2023-04-12T07:05:42.540Z,92.0754
2023-04-12T07:06:44.698Z,91.8261
2023-04-12T07:07:46.701Z,91.5925
2023-04-12T07:08:48.762Z,92.0213
2023-04-12T07:09:50.847Z,92.1900
2023-04-12T07:10:52.978Z,92.2281
2023-04-12T07:11:55.086Z,92.2576
2023-04-12T07:12:57.201Z,91.6592
2023-04-12T07:13:59.222Z,91.6724
2023-04-12T07:15:01.245Z,91.7138
2023-04-12T07:16:03.352Z,91.7525
2023-04-12T07:17:05.391Z,91.7259
2023-04-12T07:18:07.461Z,91.7264
2023-04-12T07:19:09.509Z,91.3833
2023-04-12T07:20:11.703Z,91.1741
2023-04-12T07:21:14.146Z,91.2605
2023-04-12T07:22:16.252Z,91.5633
2023-04-12T07:23:18.311Z,91.3356
2023-04-12T07:24:20.397Z,91.2624
2023-04-12T07:25:22.584Z,91.4235
2023-04-12T07:26:24.661Z,91.7210
2023-04-12T07:27:26.766Z,91.7261
2023-04-12T07:28:28.864Z,91.6137
2023-04-12T07:29:30.930Z,91.5089
2023-04-12T07:30:33.050Z,91.6779
2023-04-12T07:31:35.113Z,91.5321
2023-04-12T07:32:37.264Z,91.3184
2023-04-12T07:33:41.347Z,91.1203
2023-04-12T07:34:39.931Z,91.2958
2023-04-12T07:35:42.112Z,90.8643
2023-04-12T07:36:44.214Z,90.6154
2023-04-12T07:37:46.266Z,90.9582
2023-04-12T07:38:48.420Z,90.7554
2023-04-12T07:39:50.590Z,90.3951
2023-04-12T07:40:52.863Z,89.2457
2023-04-12T07:41:55.007Z,89.1079
2023-04-12T07:42:57.345Z,89.1197
2023-04-12T07:43:59.419Z,89.1247
2023-04-12T07:45:01.554Z,89.2768
2023-04-12T07:46:03.708Z,89.1557
2023-04-12T07:47:05.781Z,89.6955
2023-04-12T07:48:07.966Z,89.5207
2023-04-12T07:49:10.139Z,89.4958
2023-04-12T07:50:13.306Z,89.6174
2023-04-12T07:51:12.976Z,89.6677
2023-04-12T07:52:15.185Z,89.5925
2023-04-12T07:53:17.226Z,89.3261
2023-04-12T07:54:19.712Z,89.2221
2023-04-12T07:55:20.054Z,88.9332
2023-04-12T07:56:22.119Z,88.7835
2023-04-12T07:57:24.277Z,88.4315
2023-04-12T07:58:26.377Z,87.7698
2023-04-12T07:59:28.417Z,88.0612
2023-04-12T08:00:30.497Z,88.2499
2023-04-12T08:01:32.613Z,88.4408
2023-04-12T08:02:34.809Z,88.2928
2023-04-12T08:03:37.113Z,88.4224
2023-04-12T08:04:39.401Z,87.7341
2023-04-12T08:05:41.527Z,87.6816
2023-04-12T08:06:43.627Z,87.4003
2023-04-12T08:07:45.759Z,87.9295
2023-04-12T08:08:47.930Z,87.8250
2023-04-12T08:09:50.086Z,87.5193
2023-04-12T08:10:52.194Z,87.8204
2023-04-12T08:11:54.239Z,87.3666
2023-04-12T08:12:56.390Z,86.5798
2023-04-12T08:13:58.679Z,85.9567
2023-04-12T08:14:59.328Z,85.7953
2023-04-12T08:16:01.474Z,84.8926
2023-04-12T08:17:03.604Z,84.9486
2023-04-12T08:18:05.772Z,85.9342
2023-04-12T08:19:07.848Z,85.4813
2023-04-12T08:20:09.890Z,85.5920
2023-04-12T08:21:12.006Z,84.9057
2023-04-12T08:22:14.118Z,85.6216
2023-04-12T08:23:16.122Z,85.2541
2023-04-12T08:24:18.234Z,85.3791
2023-04-12T08:25:20.348Z,85.5869
2023-04-12T08:26:22.396Z,85.7253
2023-04-12T08:27:24.458Z,85.3316
2023-04-12T08:28:26.588Z,84.2968
2023-04-12T08:29:28.686Z,83.7917
2023-04-12T08:30:30.686Z,83.8932
2023-04-12T08:31:32.735Z,83.7558
2023-04-12T08:32:34.879Z,84.2831
2023-04-12T08:33:37.047Z,84.4855
2023-04-12T08:34:39.155Z,84.8689
2023-04-12T08:35:41.234Z,85.1580
2023-04-12T08:36:43.364Z,84.3292
2023-04-12T08:37:45.518Z,84.5652
2023-04-12T08:38:47.583Z,84.7493
2023-04-12T08:39:49.678Z,84.0413
2023-04-12T08:40:51.733Z,83.3469
2023-04-12T08:41:53.835Z,83.7620
2023-04-12T08:42:55.941Z,83.4602
2023-04-12T08:43:58.148Z,83.1854
2023-04-12T08:45:00.324Z,82.7553
2023-04-12T08:46:02.436Z,84.1363
2023-04-12T08:47:04.501Z,83.9954
2023-04-12T08:48:06.665Z,83.2783
2023-04-12T08:49:08.849Z,83.2560
2023-04-12T08:50:10.921Z,83.8755
2023-04-12T08:51:12.959Z,83.7156
2023-04-12T08:52:14.985Z,84.4038
2023-04-12T08:53:17.114Z,83.6788
2023-04-12T08:54:19.108Z,82.7676
2023-04-12T08:55:21.193Z,82.6839
2023-04-12T08:56:23.266Z,82.3303
2023-04-12T08:57:25.327Z,82.7912
2023-04-12T08:58:27.412Z,83.1034
2023-04-12T08:59:29.500Z,83.0325
2023-04-12T09:00:31.618Z,83.2197
2023-04-12T09:01:33.691Z,82.6148
2023-04-12T09:02:35.896Z,82.2064
2023-04-12T09:03:36.085Z,81.4545
2023-04-12T09:04:38.194Z,82.1627
2023-04-12T09:05:40.289Z,81.7028
2023-04-12T09:06:42.355Z,81.1992
2023-04-12T09:07:44.423Z,80.8921
2023-04-12T09:08:46.600Z,80.7576
2023-04-12T09:09:48.757Z,80.3724
2023-04-12T09:10:50.849Z,79.9469
2023-04-12T09:11:52.937Z,80.3271
2023-04-12T09:12:54.978Z,80.8281
2023-04-12T09:13:57.447Z,80.8815
2023-04-12T09:14:57.470Z,80.9232
2023-04-12T09:15:59.681Z,81.4192
2023-04-12T09:17:01.861Z,80.9687
2023-04-12T09:18:03.962Z,79.6205
2023-04-12T09:19:06.057Z,80.0155
2023-04-12T09:20:08.142Z,80.2655
2023-04-12T09:21:10.222Z,80.0916
2023-04-12T09:22:12.305Z,79.2310
2023-04-12T09:23:14.586Z,79.1194
2023-04-12T09:24:16.624Z,77.1851
2023-04-12T09:25:18.671Z,76.2530
2023-04-12T09:26:20.730Z,76.6236
2023-04-12T09:27:22.817Z,76.7842
2023-04-12T09:28:24.913Z,75.4445
2023-04-12T09:29:26.920Z,74.5968
2023-04-12T09:30:28.962Z,74.4867
2023-04-12T09:31:31.098Z,74.8985
2023-04-12T09:32:33.283Z,74.6420
2023-04-12T09:33:35.473Z,73.5913
2023-04-12T09:34:37.560Z,73.8549
2023-04-12T09:35:39.691Z,74.0891
2023-04-12T09:36:41.833Z,74.1364
2023-04-12T09:37:43.894Z,73.7547
2023-04-12T09:38:45.974Z,73.5302
2023-04-12T09:39:48.099Z,71.7100
2023-04-12T09:40:50.188Z,72.1415
2023-04-12T09:41:52.283Z,72.3950
2023-04-12T09:42:54.423Z,71.9315
2023-04-12T09:43:56.866Z,71.7290
2023-04-12T09:44:56.760Z,71.9740
2023-04-12T09:45:58.833Z,71.6866
2023-04-12T09:47:00.937Z,70.7926
2023-04-12T09:48:02.988Z,70.1292
2023-04-12T09:49:05.149Z,68.8062
2023-04-12T09:50:07.172Z,68.8668
2023-04-12T09:51:09.212Z,68.3366
2023-04-12T09:52:11.281Z,68.1378
2023-04-12T09:53:13.388Z,68.1599
2023-04-12T09:54:15.496Z,68.3907
2023-04-12T09:55:17.563Z,67.6562
2023-04-12T09:56:19.668Z,65.9489
2023-04-12T09:57:21.733Z,65.5605
2023-04-12T09:58:23.845Z,65.3065
2023-04-12T09:59:25.862Z,64.9165
2023-04-12T10:00:27.912Z,65.0022
2023-04-12T10:01:29.999Z,64.1190
2023-04-12T10:02:32.242Z,64.0777
2023-04-12T10:03:34.694Z,64.5499
2023-04-12T10:04:37.039Z,63.7646
2023-04-12T10:05:39.423Z,63.4403
2023-04-12T10:06:39.220Z,63.6259
2023-04-12T10:07:41.246Z,63.1923
2023-04-12T10:08:43.377Z,62.0165
2023-04-12T10:09:45.440Z,61.7953
2023-04-12T10:10:47.471Z,62.1220
2023-04-12T10:11:49.519Z,61.9706
2023-04-12T10:12:51.570Z,61.2520
2023-04-12T10:13:53.641Z,60.6112
2023-04-12T10:14:55.700Z,60.8943
2023-04-12T10:15:57.800Z,61.1804
2023-04-12T10:16:59.765Z,60.7332
2023-04-12T10:18:01.876Z,60.4421
2023-04-12T10:19:04.080Z,60.2162
2023-04-12T10:20:03.977Z,59.4162
2023-04-12T10:21:05.982Z,58.5098
2023-04-12T10:22:08.049Z,57.5529
2023-04-12T10:23:10.068Z,57.2606
2023-04-12T10:24:12.138Z,56.7804
2023-04-12T10:25:14.197Z,57.1056
2023-04-12T10:26:16.266Z,57.7747
2023-04-12T10:27:18.300Z,56.3571
2023-04-12T10:28:20.287Z,55.8673
2023-04-12T10:29:22.392Z,54.8889
2023-04-12T10:30:24.442Z,54.8456
2023-04-12T10:31:26.555Z,55.3950
2023-04-12T10:32:28.705Z,55.4702
2023-04-12T10:33:30.928Z,55.1787
2023-04-12T10:34:33.165Z,55.5559
2023-04-12T10:35:35.217Z,55.1902
2023-04-12T10:36:37.271Z,55.8019
2023-04-12T10:37:39.336Z,55.9194
2023-04-12T10:38:41.391Z,56.0019
2023-04-12T10:39:43.473Z,56.5242
2023-04-12T10:40:45.563Z,57.4166
2023-04-12T10:41:47.618Z,57.8667
2023-04-12T10:42:49.654Z,58.5704
2023-04-12T10:43:51.711Z,59.3519
2023-04-12T10:44:53.769Z,59.4228
2023-04-12T10:45:55.875Z,60.0342
2023-04-12T10:46:57.903Z,60.5547
2023-04-12T10:47:59.908Z,61.5822
2023-04-12T10:49:01.901Z,62.6991
2023-04-12T10:50:03.962Z,63.2339
2023-04-12T10:51:05.944Z,63.7419
2023-04-12T10:52:08.032Z,63.5929
2023-04-12T10:53:10.124Z,64.0252
2023-04-12T10:54:12.285Z,63.3454
2023-04-12T10:55:14.301Z,61.5576
2023-04-12T10:56:16.348Z,60.3835
2023-04-12T10:57:18.332Z,60.9567
2023-04-12T10:58:20.539Z,61.3753
2023-04-12T10:59:25.573Z,61.4808
2023-04-12T11:00:22.883Z,60.8693
2023-04-12T11:01:25.019Z,59.8228
2023-04-12T11:02:27.150Z,60.8148
2023-04-12T11:03:29.268Z,61.6216
2023-04-12T11:04:31.470Z,61.4759
2023-04-12T11:05:33.742Z,61.0679
2023-04-12T11:06:35.798Z,60.2500
2023-04-12T11:07:37.797Z,60.5302
2023-04-12T11:08:39.810Z,61.2071
2023-04-12T11:09:41.905Z,61.7726
2023-04-12T11:10:43.955Z,62.2807
2023-04-12T11:11:45.993Z,62.0154
2023-04-12T11:12:47.993Z,61.9668
2023-04-12T11:13:50.051Z,62.3917
2023-04-12T11:14:52.138Z,63.4281
2023-04-12T11:15:54.188Z,64.4051
2023-04-12T11:16:56.242Z,64.0030
2023-04-12T11:17:58.293Z,64.1071
2023-04-12T11:19:00.567Z,63.7273
2023-04-12T11:20:02.718Z,63.7395
2023-04-12T11:21:04.860Z,63.6973
2023-04-12T11:22:06.989Z,64.6215
2023-04-12T11:23:11.312Z,65.7516
2023-04-12T11:24:10.983Z,66.6421
2023-04-12T11:25:13.042Z,66.5949
2023-04-12T11:26:15.146Z,66.9888
2023-04-12T11:27:17.225Z,66.4316
2023-04-12T11:28:28.076Z,66.0494
2023-04-12T11:29:19.494Z,64.9287
2023-04-12T11:30:21.536Z,64.3379
2023-04-12T11:31:23.628Z,66.0698
2023-04-12T11:32:25.847Z,66.0352
2023-04-12T11:33:27.878Z,64.9611
2023-04-12T11:34:29.907Z,66.6468
2023-04-12T11:35:31.988Z,64.7405
2023-04-12T11:36:33.995Z,63.8830
2023-04-12T11:37:36.047Z,63.9515
2023-04-12T11:38:38.173Z,62.9209
2023-04-12T11:39:40.249Z,63.9525
2023-04-12T11:40:42.330Z,64.2247
2023-04-12T11:41:44.342Z,64.0042
2023-04-12T11:42:46.347Z,64.2323
2023-04-12T11:43:48.461Z,64.3147
2023-04-12T11:44:56.070Z,64.7747
2023-04-12T11:45:50.811Z,65.6280
2023-04-12T11:46:52.829Z,65.9497
2023-04-12T11:47:54.964Z,65.2720
2023-04-12T11:48:57.212Z,66.8874
2023-04-12T11:49:59.390Z,68.2258
2023-04-12T11:51:10.792Z,68.4548
2023-04-12T11:52:01.777Z,68.7184
2023-04-12T11:53:03.840Z,68.4131
2023-04-12T11:54:05.866Z,68.6049
2023-04-12T11:55:07.944Z,68.6364
2023-04-12T11:56:10.088Z,69.0953
2023-04-12T11:57:12.145Z,69.2887
2023-04-12T11:58:14.218Z,69.5374
2023-04-12T11:59:16.317Z,69.2571
2023-04-12T12:00:18.406Z,69.5204
2023-04-12T12:01:20.507Z,69.4560
2023-04-12T12:02:24.314Z,68.3525
2023-04-12T12:03:24.838Z,70.2517
2023-04-12T12:04:24.977Z,70.9759
2023-04-12T12:05:25.126Z,71.1555
2023-04-12T12:06:28.184Z,70.5924
2023-04-12T12:07:28.394Z,70.5810
2023-04-12T12:08:30.587Z,68.7343
2023-04-12T12:09:32.685Z,66.9247
2023-04-12T12:10:46.412Z,66.4314
2023-04-12T12:11:35.098Z,67.1576
2023-04-12T12:12:37.195Z,66.5405
2023-04-12T12:13:40.621Z,66.5152
2023-04-12T12:14:40.847Z,65.7201
2023-04-12T12:15:42.937Z,66.2663
2023-04-12T12:16:45.031Z,64.9586
2023-04-12T12:17:47.190Z,65.3737
2023-04-12T12:18:52.320Z,65.0786
2023-04-12T12:19:49.767Z,65.8959
2023-04-12T12:20:51.906Z,66.1108
2023-04-12T12:21:53.985Z,66.4991
2023-04-12T12:22:56.096Z,66.5432
2023-04-12T12:23:58.487Z,67.2727
2023-04-12T12:24:58.463Z,66.2127
2023-04-12T12:26:14.825Z,66.8805
2023-04-12T12:27:00.863Z,66.5463
2023-04-12T12:28:02.936Z,66.1150
2023-04-12T12:29:05.073Z,66.1154
2023-04-12T12:30:07.153Z,65.6407